createdAt,value
2017-04-13T00:00:45.281Z,9.9
2017-04-13T00:01:47.127Z,9.9
2017-04-13T00:02:48.983Z,9.9
2017-04-13T00:03:50.834Z,9.9
2017-04-13T00:04:53.034Z,9.9
2017-04-13T00:05:55.214Z,9.9
2017-04-13T00:06:57.068Z,9.9
2017-04-13T00:07:58.923Z,9.9
2017-04-13T00:09:01.114Z,9.9
2017-04-13T00:10:02.961Z,9.9
2017-04-13T00:11:04.818Z,9.9
2017-04-13T00:12:06.672Z,9.9
2017-04-13T00:13:08.534Z,9.9
2017-04-13T00:14:10.386Z,9.9
2017-04-13T00:15:12.242Z,9.9
2017-04-13T00:16:14.093Z,9.9
2017-04-13T00:17:15.962Z,9.9
2017-04-13T00:18:17.811Z,9.9
2017-04-13T00:19:19.678Z,9.9
2017-04-13T00:20:21.532Z,10
2017-04-13T00:21:23.390Z,10
2017-04-13T00:22:25.243Z,10
2017-04-13T00:23:27.105Z,10
2017-04-13T00:24:28.950Z,10
2017-04-13T00:25:30.853Z,10
2017-04-13T00:26:32.703Z,10
2017-04-13T00:27:34.898Z,10
2017-04-13T00:28:36.747Z,10
2017-04-13T00:29:38.951Z,10
2017-04-13T00:30:40.818Z,10
2017-04-13T00:31:42.663Z,10
2017-04-13T00:32:44.548Z,10
2017-04-13T00:33:46.402Z,10
2017-04-13T00:34:48.259Z,10
2017-04-13T00:35:50.113Z,10
2017-04-13T00:36:51.969Z,10
2017-04-13T00:37:53.824Z,10
2017-04-13T00:38:56.016Z,10
2017-04-13T00:39:58.235Z,10
2017-04-13T00:41:00.429Z,10
2017-04-13T00:42:02.283Z,10
2017-04-13T00:43:04.155Z,10
2017-04-13T00:44:05.996Z,10
2017-04-13T00:45:07.858Z,10
2017-04-13T00:46:09.714Z,10
2017-04-13T00:47:11.569Z,9.9
2017-04-13T00:48:13.421Z,9.9
2017-04-13T00:49:15.641Z,10
2017-04-13T00:50:17.505Z,9.9
2017-04-13T00:51:19.378Z,9.9
2017-04-13T00:52:21.238Z,9.9
2017-04-13T00:53:23.432Z,10
2017-04-13T00:54:25.285Z,9.9
2017-04-13T00:55:27.145Z,10
2017-04-13T00:56:28.996Z,10
2017-04-13T00:57:31.189Z,10
2017-04-13T00:58:33.050Z,10
2017-04-13T00:59:34.908Z,10
2017-04-13T01:00:36.752Z,10
2017-04-13T01:01:38.598Z,10
2017-04-13T01:02:40.446Z,9.9
2017-04-13T01:03:42.334Z,9.9
2017-04-13T01:04:44.192Z,9.9
2017-04-13T01:05:46.043Z,9.9
2017-04-13T01:06:47.889Z,9.9
2017-04-13T01:07:49.746Z,9.9
2017-04-13T01:08:51.942Z,9.9
2017-04-13T01:09:53.792Z,9.9
2017-04-13T01:10:55.644Z,9.9
2017-04-13T01:11:57.521Z,9.9
2017-04-13T01:12:59.370Z,9.9
2017-04-13T01:14:01.226Z,9.8
2017-04-13T01:15:03.067Z,9.8
2017-04-13T01:16:04.934Z,9.8
2017-04-13T01:17:06.834Z,9.8
2017-04-13T01:18:09.043Z,9.8
2017-04-13T01:19:11.238Z,9.8
2017-04-13T01:20:13.081Z,9.7
2017-04-13T01:21:14.948Z,9.7
2017-04-13T01:22:16.802Z,9.7
2017-04-13T01:23:18.659Z,9.7
2017-04-13T01:24:20.520Z,9.7
2017-04-13T01:25:22.366Z,9.7
2017-04-13T01:26:24.558Z,9.7
2017-04-13T01:27:26.403Z,9.7
2017-04-13T01:28:28.275Z,9.7
2017-04-13T01:29:30.118Z,9.7
2017-04-13T01:30:31.972Z,9.7
2017-04-13T01:31:33.832Z,9.7
2017-04-13T01:32:35.684Z,9.7
2017-04-13T01:33:37.897Z,9.8
2017-04-13T01:34:39.755Z,9.8
2017-04-13T01:35:41.614Z,9.8
2017-04-13T01:36:43.477Z,9.8
2017-04-13T01:37:45.674Z,9.8
2017-04-13T01:38:47.533Z,9.8
2017-04-13T01:39:49.383Z,9.8
2017-04-13T01:40:51.581Z,9.8
2017-04-13T01:41:53.480Z,9.8
2017-04-13T01:42:55.329Z,9.8
2017-04-13T01:43:57.188Z,9.8
2017-04-13T01:44:59.035Z,9.8
2017-04-13T01:46:00.893Z,9.8
2017-04-13T01:47:02.748Z,9.8
2017-04-13T01:48:04.590Z,9.8
2017-04-13T01:49:06.455Z,9.8
2017-04-13T01:50:08.310Z,9.8
2017-04-13T01:51:10.164Z,9.8
2017-04-13T01:52:12.008Z,9.8
2017-04-13T01:53:13.864Z,9.7
2017-04-13T01:54:15.721Z,9.7
2017-04-13T01:55:17.575Z,9.7
2017-04-13T01:56:19.764Z,9.7
2017-04-13T01:57:21.618Z,9.7
2017-04-13T01:58:23.470Z,9.7
2017-04-13T01:59:25.344Z,9.7
2017-04-13T02:00:27.212Z,9.7
2017-04-13T02:01:29.057Z,9.7
2017-04-13T02:02:30.910Z,9.7
2017-04-13T02:03:32.759Z,9.7
2017-04-13T02:04:34.603Z,9.7
2017-04-13T02:05:36.853Z,9.7
2017-04-13T02:06:38.715Z,9.7
2017-04-13T02:07:40.908Z,9.7
2017-04-13T02:08:42.758Z,9.8
2017-04-13T02:09:44.606Z,9.7
2017-04-13T02:10:46.460Z,9.7
2017-04-13T02:11:48.320Z,9.7
2017-04-13T02:12:50.177Z,9.7
2017-04-13T02:13:52.365Z,9.7
2017-04-13T02:14:54.225Z,9.7
2017-04-13T02:15:56.072Z,9.7
2017-04-13T02:16:58.272Z,9.7
2017-04-13T02:18:00.117Z,9.7
2017-04-13T02:19:01.976Z,9.7
2017-04-13T02:20:04.165Z,9.7
2017-04-13T02:21:06.020Z,9.7
2017-04-13T02:22:07.882Z,9.7
2017-04-13T02:23:09.735Z,9.7
2017-04-13T02:24:11.588Z,9.7
2017-04-13T02:25:13.446Z,9.7
2017-04-13T02:26:15.628Z,9.7
2017-04-13T02:27:17.481Z,9.7
2017-04-13T02:28:19.326Z,9.7
2017-04-13T02:29:21.231Z,9.7
2017-04-13T02:30:23.074Z,9.8
2017-04-13T02:31:25.283Z,9.8
2017-04-13T02:32:27.464Z,9.7
2017-04-13T02:33:29.321Z,9.8
2017-04-13T02:34:31.175Z,9.8
2017-04-13T02:35:33.025Z,9.7
2017-04-13T02:36:35.223Z,9.8
2017-04-13T02:37:37.086Z,9.8
2017-04-13T02:38:38.941Z,9.7
2017-04-13T02:39:40.799Z,9.7
2017-04-13T02:40:42.648Z,9.8
2017-04-13T02:41:44.501Z,9.7
2017-04-13T02:42:46.356Z,9.8
2017-04-13T02:43:48.221Z,9.8
2017-04-13T02:44:50.092Z,9.8
2017-04-13T02:45:52.284Z,9.8
2017-04-13T02:46:54.131Z,9.7
2017-04-13T02:47:55.987Z,9.7
2017-04-13T02:48:57.843Z,9.7
2017-04-13T02:50:00.059Z,9.7
2017-04-13T02:51:02.243Z,9.7
2017-04-13T02:52:04.099Z,9.7
2017-04-13T02:53:05.949Z,9.7
2017-04-13T02:54:07.801Z,9.7
2017-04-13T02:55:09.659Z,9.7
2017-04-13T02:56:11.506Z,9.6
2017-04-13T02:57:13.365Z,9.6
2017-04-13T02:58:15.224Z,9.6
2017-04-13T02:59:17.406Z,9.6
2017-04-13T03:00:19.264Z,9.6
2017-04-13T03:01:21.119Z,9.6
2017-04-13T03:02:22.972Z,9.6
2017-04-13T03:03:24.818Z,9.6
2017-04-13T03:04:26.670Z,9.5
2017-04-13T03:05:28.522Z,9.6
2017-04-13T03:06:30.372Z,9.5
2017-04-13T03:07:32.233Z,9.6
2017-04-13T03:08:34.081Z,9.6
2017-04-13T03:09:35.928Z,9.6
2017-04-13T03:10:37.792Z,9.6
2017-04-13T03:11:39.646Z,9.6
2017-04-13T03:12:41.839Z,9.6
2017-04-13T03:13:44.023Z,9.5
2017-04-13T03:14:45.877Z,9.6
2017-04-13T03:15:47.736Z,9.6
2017-04-13T03:16:49.587Z,9.6
2017-04-13T03:17:51.441Z,9.6
2017-04-13T03:18:53.486Z,9.6
2017-04-13T03:19:55.358Z,9.6
2017-04-13T03:20:57.219Z,9.6
2017-04-13T03:21:59.788Z,9.6
2017-04-13T03:23:01.645Z,9.6
2017-04-13T03:24:03.503Z,9.6
2017-04-13T03:25:05.358Z,9.6
2017-04-13T03:26:07.211Z,9.6
2017-04-13T03:27:09.063Z,9.6
2017-04-13T03:28:10.916Z,9.6
2017-04-13T03:29:12.799Z,9.6
2017-04-13T03:30:15.342Z,9.6
2017-04-13T03:31:17.200Z,9.6
2017-04-13T03:32:19.417Z,9.6
2017-04-13T03:33:21.272Z,9.6
2017-04-13T03:34:23.134Z,9.6
2017-04-13T03:35:24.993Z,9.6
2017-04-13T03:36:26.850Z,9.7
2017-04-13T03:37:28.695Z,9.6
2017-04-13T03:38:30.550Z,9.7
2017-04-13T03:39:32.401Z,9.7
2017-04-13T03:40:34.263Z,9.7
2017-04-13T03:41:36.492Z,9.7
2017-04-13T03:42:38.691Z,9.6
2017-04-13T03:43:40.540Z,9.7
2017-04-13T03:44:42.388Z,9.6
2017-04-13T03:45:44.591Z,9.6
2017-04-13T03:46:46.443Z,9.6
2017-04-13T03:47:48.291Z,9.7
2017-04-13T03:48:50.489Z,9.6
2017-04-13T03:49:52.337Z,9.6
2017-04-13T03:50:54.187Z,9.6
2017-04-13T03:51:56.044Z,9.6
2017-04-13T03:52:57.907Z,9.6
2017-04-13T03:53:59.767Z,9.6
2017-04-13T03:55:01.967Z,9.5
2017-04-13T03:56:04.213Z,9.5
2017-04-13T03:57:06.069Z,9.5
2017-04-13T03:58:07.927Z,9.5
2017-04-13T03:59:09.788Z,9.5
2017-04-13T04:00:11.632Z,9.5
2017-04-13T04:01:13.490Z,9.5
2017-04-13T04:02:15.343Z,9.5
2017-04-13T04:03:17.208Z,9.5
2017-04-13T04:04:19.055Z,9.5
2017-04-13T04:05:20.908Z,9.5
2017-04-13T04:06:22.760Z,9.5
2017-04-13T04:07:24.610Z,9.5
2017-04-13T04:08:26.461Z,9.5
2017-04-13T04:09:28.354Z,9.5
2017-04-13T04:10:30.212Z,9.5
2017-04-13T04:11:32.068Z,9.5
2017-04-13T04:12:33.920Z,9.6
2017-04-13T04:13:35.768Z,9.6
2017-04-13T04:14:37.986Z,9.6
2017-04-13T04:15:40.514Z,9.6
2017-04-13T04:16:42.365Z,9.6
2017-04-13T04:17:44.219Z,9.6
2017-04-13T04:18:46.068Z,9.6
2017-04-13T04:19:47.923Z,9.7
2017-04-13T04:20:49.781Z,9.7
2017-04-13T04:21:51.980Z,9.7
2017-04-13T04:22:53.830Z,9.7
2017-04-13T04:23:55.678Z,9.7
2017-04-13T04:24:57.525Z,9.7
2017-04-13T04:25:59.722Z,9.7
2017-04-13T04:27:01.575Z,9.7
2017-04-13T04:28:03.429Z,9.7
2017-04-13T04:29:05.284Z,9.7
2017-04-13T04:30:07.155Z,9.7
2017-04-13T04:31:09.346Z,9.7
2017-04-13T04:32:11.201Z,9.7
2017-04-13T04:33:13.050Z,9.7
2017-04-13T04:34:15.253Z,9.7
2017-04-13T04:35:17.159Z,9.7
2017-04-13T04:36:19.008Z,9.7
2017-04-13T04:37:20.862Z,9.7
2017-04-13T04:38:22.721Z,9.8
2017-04-13T04:39:24.577Z,9.8
2017-04-13T04:40:26.431Z,9.8
2017-04-13T04:41:28.271Z,9.8
2017-04-13T04:42:30.134Z,9.8
2017-04-13T04:43:31.996Z,9.8
2017-04-13T04:44:33.857Z,9.8
2017-04-13T04:45:35.720Z,9.8
2017-04-13T04:46:38.259Z,9.8
2017-04-13T04:47:40.113Z,9.8
2017-04-13T04:48:41.969Z,9.8
2017-04-13T04:49:43.822Z,9.8
2017-04-13T04:50:45.680Z,9.8
2017-04-13T04:51:47.878Z,9.8
2017-04-13T04:52:49.738Z,9.8
2017-04-13T04:53:51.596Z,9.8
2017-04-13T04:54:53.777Z,9.8
2017-04-13T04:55:55.628Z,9.8
2017-04-13T04:56:57.474Z,9.8
2017-04-13T04:57:59.348Z,9.8
2017-04-13T04:59:01.239Z,9.8
2017-04-13T05:00:03.428Z,9.8
2017-04-13T05:01:05.278Z,9.8
2017-04-13T05:02:07.519Z,9.8
2017-04-13T05:03:09.394Z,9.9
2017-04-13T05:04:11.249Z,9.9
2017-04-13T05:05:13.111Z,9.9
2017-04-13T05:06:14.961Z,9.9
2017-04-13T05:07:16.814Z,9.9
2017-04-13T05:08:18.669Z,9.9
2017-04-13T05:09:20.526Z,9.9
2017-04-13T05:10:22.702Z,9.9
2017-04-13T05:11:24.561Z,9.9
2017-04-13T05:12:26.415Z,9.9
2017-04-13T05:13:28.269Z,9.9
2017-04-13T05:14:30.120Z,9.9
2017-04-13T05:15:31.969Z,9.9
2017-04-13T05:16:34.167Z,9.9
2017-04-13T05:17:36.360Z,9.9
2017-04-13T05:18:38.247Z,9.9
2017-04-13T05:19:40.088Z,9.9
2017-04-13T05:20:41.995Z,10
2017-04-13T05:21:43.843Z,9.9
2017-04-13T05:22:45.692Z,9.9
2017-04-13T05:23:47.545Z,9.9
2017-04-13T05:24:49.402Z,9.9
2017-04-13T05:25:51.252Z,10
2017-04-13T05:26:53.152Z,10
2017-04-13T05:28:16.361Z,10
2017-04-13T05:29:18.236Z,10
2017-04-13T05:30:20.089Z,10.1
2017-04-13T05:31:21.950Z,10.1
2017-04-13T05:32:23.831Z,10.1
2017-04-13T05:33:25.696Z,10.2
2017-04-13T05:34:27.607Z,10.2
2017-04-13T05:35:29.481Z,10.3
2017-04-13T05:36:31.336Z,10.3
2017-04-13T05:37:33.329Z,10.4
2017-04-13T05:38:35.193Z,10.4
2017-04-13T05:39:37.397Z,10.4
2017-04-13T05:40:39.284Z,10.5
2017-04-13T05:41:41.157Z,10.5
2017-04-13T05:42:43.351Z,10.5
2017-04-13T05:43:45.228Z,10.5
2017-04-13T05:44:47.441Z,10.6
2017-04-13T05:45:49.303Z,10.6
2017-04-13T05:46:51.165Z,10.6
2017-04-13T05:47:53.011Z,10.6
2017-04-13T05:48:54.912Z,10.6
2017-04-13T05:49:56.829Z,10.6
2017-04-13T05:50:58.784Z,10.5
2017-04-13T05:52:00.681Z,10.5
2017-04-13T05:53:02.584Z,10.5
2017-04-13T05:54:04.798Z,10.5
2017-04-13T05:55:06.680Z,10.5
2017-04-13T05:56:08.537Z,10.6
2017-04-13T05:57:10.391Z,10.6
2017-04-13T05:58:12.247Z,10.6
2017-04-13T05:59:14.100Z,10.6
2017-04-13T06:00:15.965Z,10.7
2017-04-13T06:01:17.809Z,10.7
2017-04-13T06:02:19.673Z,10.7
2017-04-13T06:03:21.519Z,10.7
2017-04-13T06:04:23.394Z,10.7
2017-04-13T06:05:25.588Z,10.7
2017-04-13T06:06:27.451Z,10.7
2017-04-13T06:07:29.393Z,10.8
2017-04-13T06:08:31.258Z,10.8
2017-04-13T06:09:33.117Z,10.8
2017-04-13T06:10:34.987Z,10.8
2017-04-13T06:11:36.845Z,10.8
2017-04-13T06:12:38.702Z,10.8
2017-04-13T06:13:40.566Z,10.8
2017-04-13T06:14:42.408Z,10.8
2017-04-13T06:15:44.272Z,10.8
2017-04-13T06:16:46.128Z,10.8
2017-04-13T06:17:47.991Z,10.8
2017-04-13T06:18:49.838Z,10.8
2017-04-13T06:19:51.706Z,10.8
2017-04-13T06:20:53.899Z,10.8
2017-04-13T06:21:55.768Z,10.9
2017-04-13T06:22:57.620Z,10.9
2017-04-13T06:23:59.487Z,10.8
2017-04-13T06:25:01.336Z,10.9
2017-04-13T06:26:03.198Z,10.9
2017-04-13T06:27:05.051Z,11
2017-04-13T06:28:06.912Z,11
2017-04-13T06:29:08.767Z,11
2017-04-13T06:30:10.626Z,11
2017-04-13T06:31:12.491Z,11.1
2017-04-13T06:32:14.354Z,11.1
2017-04-13T06:33:16.222Z,11.1
2017-04-13T06:34:18.071Z,11.2
2017-04-13T06:35:19.926Z,11.2
2017-04-13T06:36:21.787Z,11.3
2017-04-13T06:37:23.646Z,11.4
2017-04-13T06:38:25.509Z,11.5
2017-04-13T06:39:27.371Z,11.5
2017-04-13T06:40:29.235Z,11.5
2017-04-13T06:41:31.099Z,11.6
2017-04-13T06:42:33.294Z,11.6
2017-04-13T06:43:35.149Z,11.6
2017-04-13T06:44:37.357Z,11.6
2017-04-13T06:45:39.569Z,11.5
2017-04-13T06:46:41.423Z,11.5
2017-04-13T06:47:43.278Z,11.6
2017-04-13T06:48:45.135Z,11.6
2017-04-13T06:49:47.003Z,11.6
2017-04-13T06:50:48.860Z,11.6
2017-04-13T06:51:51.058Z,11.7
2017-04-13T06:52:53.257Z,11.7
2017-04-13T06:53:55.119Z,11.7
2017-04-13T06:54:56.983Z,11.7
2017-04-13T06:55:58.844Z,11.7
2017-04-13T06:57:00.700Z,11.7
2017-04-13T06:58:02.553Z,11.7
2017-04-13T06:59:04.410Z,11.7
2017-04-13T07:00:06.260Z,11.7
2017-04-13T07:01:08.120Z,11.7
2017-04-13T07:02:09.985Z,11.8
2017-04-13T07:03:11.844Z,11.8
2017-04-13T07:04:13.695Z,11.8
2017-04-13T07:05:15.902Z,11.8
2017-04-13T07:06:17.771Z,11.8
2017-04-13T07:07:51.501Z,11.8
2017-04-13T07:08:54.402Z,11.8
2017-04-13T07:09:56.262Z,11.8
2017-04-13T07:10:58.117Z,11.9
2017-04-13T07:12:00.577Z,11.9
2017-04-13T07:13:02.498Z,11.9
2017-04-13T07:14:04.373Z,11.9
2017-04-13T07:15:06.238Z,11.9
2017-04-13T07:16:08.088Z,11.9
2017-04-13T07:17:09.950Z,12
2017-04-13T07:18:11.811Z,12
2017-04-13T07:19:13.665Z,12
2017-04-13T07:20:15.529Z,12.1
2017-04-13T07:21:17.939Z,12.1
2017-04-13T07:22:19.926Z,12.1
2017-04-13T07:23:22.145Z,12.1
2017-04-13T07:24:24.007Z,12.1
2017-04-13T07:25:25.860Z,12.1
2017-04-13T07:26:27.714Z,12
2017-04-13T07:27:29.633Z,12
2017-04-13T07:28:31.479Z,12.1
2017-04-13T07:29:33.347Z,12
2017-04-13T07:30:35.202Z,12
2017-04-13T07:31:37.071Z,12
2017-04-13T07:32:38.950Z,12
2017-04-13T07:33:40.809Z,12
2017-04-13T07:34:42.684Z,11.9
2017-04-13T07:35:44.587Z,11.9
2017-04-13T07:36:46.463Z,11.9
2017-04-13T07:37:48.337Z,11.8
2017-04-13T07:38:50.242Z,11.8
2017-04-13T07:39:52.102Z,11.8
2017-04-13T07:40:53.964Z,11.8
2017-04-13T07:41:55.823Z,11.8
2017-04-13T07:42:57.689Z,11.8
2017-04-13T07:43:59.642Z,11.8
2017-04-13T07:45:01.510Z,11.9
2017-04-13T07:46:03.765Z,11.9
2017-04-13T07:47:05.620Z,12
2017-04-13T07:48:07.477Z,12
2017-04-13T07:49:09.340Z,12
2017-04-13T07:50:11.531Z,12.1
2017-04-13T07:51:13.383Z,12.1
2017-04-13T07:52:15.238Z,12.1
2017-04-13T07:53:17.095Z,12.1
2017-04-13T07:54:18.949Z,12.2
2017-04-13T07:55:20.863Z,12.3
2017-04-13T07:56:22.731Z,12.3
2017-04-13T07:57:24.589Z,12.3
2017-04-13T07:58:26.517Z,12.4
2017-04-13T07:59:28.389Z,12.4
2017-04-13T08:00:30.341Z,12.4
2017-04-13T08:01:32.206Z,12.5
2017-04-13T08:02:34.401Z,12.6
2017-04-13T08:03:36.266Z,12.7
2017-04-13T08:04:38.126Z,12.7
2017-04-13T08:05:39.975Z,12.8
2017-04-13T08:06:41.825Z,12.8
2017-04-13T08:07:43.683Z,12.8
2017-04-13T08:08:45.619Z,12.8
2017-04-13T08:09:47.814Z,12.8
2017-04-13T08:10:49.764Z,12.8
2017-04-13T08:11:51.624Z,12.8
2017-04-13T08:12:53.479Z,12.8
2017-04-13T08:13:55.330Z,12.8
2017-04-13T08:14:57.195Z,12.8
2017-04-13T08:15:59.052Z,12.8
2017-04-13T08:17:00.920Z,12.9
2017-04-13T08:18:02.875Z,12.9
2017-04-13T08:19:04.733Z,13
2017-04-13T08:20:06.587Z,13
2017-04-13T08:21:08.450Z,13.1
2017-04-13T08:22:10.317Z,13.2
2017-04-13T08:23:12.182Z,13.2
2017-04-13T08:24:14.046Z,13.3
2017-04-13T08:25:15.911Z,13.4
2017-04-13T08:26:17.770Z,13.5
2017-04-13T08:27:19.624Z,13.5
2017-04-13T08:28:21.482Z,13.5
2017-04-13T08:29:23.468Z,13.5
2017-04-13T08:30:25.334Z,13.5
2017-04-13T08:31:27.193Z,13.4
2017-04-13T08:32:29.041Z,13.4
2017-04-13T08:33:30.904Z,13.4
2017-04-13T08:34:32.758Z,13.5
2017-04-13T08:35:34.948Z,13.5
2017-04-13T08:36:37.143Z,13.5
2017-04-13T08:37:38.992Z,13.6
2017-04-13T08:38:40.868Z,13.7
2017-04-13T08:39:42.957Z,13.7
2017-04-13T08:40:44.823Z,13.7
2017-04-13T08:41:47.010Z,13.8
2017-04-13T08:42:49.210Z,13.8
2017-04-13T08:43:51.066Z,13.8
2017-04-13T08:44:52.922Z,13.8
2017-04-13T08:45:54.973Z,13.8
2017-04-13T08:46:56.827Z,13.8
2017-04-13T08:47:58.677Z,13.8
2017-04-13T08:49:00.527Z,13.8
2017-04-13T08:50:02.403Z,13.8
2017-04-13T08:51:04.254Z,13.8
2017-04-13T08:52:06.123Z,13.9
2017-04-13T08:53:08.240Z,13.8
2017-04-13T08:54:10.103Z,13.8
2017-04-13T08:55:11.969Z,13.8
2017-04-13T08:56:14.204Z,13.8
2017-04-13T08:57:16.056Z,13.7
2017-04-13T08:58:17.952Z,13.7
2017-04-13T08:59:19.812Z,13.7
2017-04-13T09:00:21.849Z,13.6
2017-04-13T09:01:23.781Z,13.7
2017-04-13T09:02:25.641Z,13.7
2017-04-13T09:03:27.489Z,13.7
2017-04-13T09:04:29.348Z,13.8
2017-04-13T09:05:31.793Z,13.9
2017-04-13T09:06:33.647Z,13.8
2017-04-13T09:07:35.509Z,13.8
2017-04-13T09:08:37.359Z,13.8
2017-04-13T09:09:39.212Z,13.8
2017-04-13T09:10:41.065Z,13.8
2017-04-13T09:11:43.146Z,13.9
2017-04-13T09:12:44.996Z,14
2017-04-13T09:13:46.856Z,14.1
2017-04-13T09:14:48.729Z,14.3
2017-04-13T09:15:50.583Z,14.5
2017-04-13T09:16:52.442Z,14.7
2017-04-13T09:17:54.305Z,14.9
2017-04-13T09:18:56.183Z,15.2
2017-04-13T09:19:58.114Z,15.3
2017-04-13T09:21:02.834Z,15.5
2017-04-13T09:22:04.798Z,15.6
2017-04-13T09:23:06.658Z,15.7
2017-04-13T09:24:08.679Z,15.8
2017-04-13T09:25:10.555Z,15.8
2017-04-13T09:26:12.556Z,15.8
2017-04-13T09:27:14.427Z,15.9
2017-04-13T09:28:16.327Z,15.9
2017-04-13T09:29:18.192Z,15.9
2017-04-13T09:30:20.072Z,15.9
2017-04-13T09:31:21.929Z,15.9
2017-04-13T09:32:23.789Z,15.8
2017-04-13T09:33:25.653Z,15.7
2017-04-13T09:34:27.851Z,15.7
2017-04-13T09:35:29.728Z,15.6
2017-04-13T09:36:31.590Z,15.6
2017-04-13T09:37:33.458Z,15.6
2017-04-13T09:38:35.317Z,15.6
2017-04-13T09:39:37.249Z,15.5
2017-04-13T09:40:39.109Z,15.5
2017-04-13T09:41:40.988Z,15.5
2017-04-13T09:42:42.863Z,15.6
2017-04-13T09:43:45.071Z,15.6
2017-04-13T09:44:46.944Z,15.7
2017-04-13T09:45:48.848Z,15.8
2017-04-13T09:46:50.710Z,16
2017-04-13T09:47:52.576Z,16.2
2017-04-13T09:48:54.451Z,16.3
2017-04-13T09:49:56.311Z,16.4
2017-04-13T09:50:58.168Z,16.5
2017-04-13T09:52:00.054Z,16.6
2017-04-13T09:53:01.922Z,16.6
2017-04-13T09:54:03.860Z,16.6
2017-04-13T09:55:05.755Z,16.6
2017-04-13T09:56:07.733Z,16.5
2017-04-13T09:57:09.603Z,16.5
2017-04-13T09:58:11.937Z,16.5
2017-04-13T09:59:13.809Z,16.4
2017-04-13T10:00:15.742Z,16.4
2017-04-13T10:01:17.630Z,16.3
2017-04-13T10:02:19.589Z,16.2
2017-04-13T10:03:21.453Z,16.2
2017-04-13T10:04:23.741Z,16.3
2017-04-13T10:05:25.603Z,16.3
2017-04-13T10:06:27.820Z,16.3
2017-04-13T10:07:29.684Z,16.3
2017-04-13T10:08:31.587Z,16.3
2017-04-13T10:09:33.784Z,16.2
2017-04-13T10:10:35.763Z,16.1
2017-04-13T10:11:37.617Z,16.1
2017-04-13T10:12:39.592Z,15.9
2017-04-13T10:13:41.455Z,15.8
2017-04-13T10:14:43.336Z,15.7
2017-04-13T10:15:45.199Z,15.7
2017-04-13T10:16:47.057Z,15.7
2017-04-13T10:17:48.997Z,15.7
2017-04-13T10:18:50.854Z,15.6
2017-04-13T10:19:53.047Z,15.6
2017-04-13T10:20:54.920Z,15.5
2017-04-13T10:21:56.792Z,15.4
2017-04-13T10:22:59.343Z,15.2
2017-04-13T10:24:01.319Z,15
2017-04-13T10:25:03.197Z,14.8
2017-04-13T10:26:05.760Z,14.7
2017-04-13T10:27:07.981Z,14.6
2017-04-13T10:28:09.845Z,14.5
2017-04-13T10:29:11.709Z,14.5
2017-04-13T10:30:13.646Z,14.6
2017-04-13T10:31:15.516Z,14.6
2017-04-13T10:32:17.384Z,14.8
2017-04-13T10:33:19.239Z,15
2017-04-13T10:34:21.112Z,15.1
2017-04-13T10:35:22.971Z,15.2
2017-04-13T10:36:24.837Z,15.3
2017-04-13T10:37:26.686Z,15.5
2017-04-13T10:38:28.638Z,15.7
2017-04-13T10:39:30.507Z,15.8
2017-04-13T10:40:32.536Z,16
2017-04-13T10:41:34.728Z,16.2
2017-04-13T10:42:36.945Z,16.3
2017-04-13T10:43:38.927Z,16.4
2017-04-13T10:44:40.791Z,16.5
2017-04-13T10:45:42.650Z,16.7
2017-04-13T10:46:44.622Z,16.8
2017-04-13T10:47:46.837Z,16.9
2017-04-13T10:48:48.701Z,17
2017-04-13T10:49:50.845Z,17
2017-04-13T10:50:52.962Z,17.2
2017-04-13T10:51:54.825Z,17.3
2017-04-13T10:52:56.818Z,17.5
2017-04-13T10:53:58.681Z,17.7
2017-04-13T10:55:00.547Z,17.8
2017-04-13T10:56:02.406Z,17.7
2017-04-13T10:57:04.456Z,17.7
2017-04-13T10:58:06.665Z,17.8
2017-04-13T10:59:08.703Z,17.9
2017-04-13T11:00:10.578Z,18
2017-04-13T11:01:12.444Z,18.2
2017-04-13T11:02:14.854Z,18.4
2017-04-13T11:03:16.724Z,18.6
2017-04-13T11:04:18.622Z,18.8
2017-04-13T11:05:20.496Z,18.9
2017-04-13T11:06:22.377Z,18.9
2017-04-13T11:07:24.253Z,18.9
2017-04-13T11:08:26.124Z,18.9
2017-04-13T11:09:27.996Z,18.8
2017-04-13T11:10:30.153Z,18.7
2017-04-13T11:11:32.168Z,18.6
2017-04-13T11:12:34.313Z,18.5
2017-04-13T11:13:36.543Z,18.5
2017-04-13T11:14:38.404Z,18.6
2017-04-13T11:15:40.272Z,18.7
2017-04-13T11:16:42.135Z,18.7
2017-04-13T11:17:43.997Z,18.6
2017-04-13T11:18:46.236Z,18.5
2017-04-13T11:19:48.172Z,18.4
2017-04-13T11:20:50.381Z,18.3
2017-04-13T11:21:52.239Z,18.1
2017-04-13T11:22:54.128Z,18
2017-04-13T11:23:56.144Z,17.9
2017-04-13T11:24:58.019Z,17.7
2017-04-13T11:25:59.877Z,17.7
2017-04-13T11:27:01.753Z,17.7
2017-04-13T11:28:03.765Z,17.6
2017-04-13T11:29:05.653Z,17.7
2017-04-13T11:30:08.197Z,17.8
2017-04-13T11:31:10.063Z,17.8
2017-04-13T11:32:12.164Z,17.8
2017-04-13T11:33:14.051Z,17.8
2017-04-13T11:34:16.243Z,17.8
2017-04-13T11:35:18.117Z,17.7
2017-04-13T11:36:19.979Z,17.6
2017-04-13T11:37:22.085Z,17.6
2017-04-13T11:38:23.982Z,17.6
2017-04-13T11:39:26.193Z,17.7
2017-04-13T11:40:28.057Z,17.7
2017-04-13T11:41:29.921Z,17.6
2017-04-13T11:42:32.007Z,17.6
2017-04-13T11:43:33.873Z,17.4
2017-04-13T11:44:35.747Z,17.3
2017-04-13T11:45:37.735Z,17.2
2017-04-13T11:46:39.616Z,17.1
2017-04-13T11:47:42.242Z,17.1
2017-04-13T11:48:44.115Z,17.1
2017-04-13T11:49:45.986Z,17.3
2017-04-13T11:50:47.855Z,17.4
2017-04-13T11:51:49.716Z,17.5
2017-04-13T11:52:51.592Z,17.6
2017-04-13T11:53:53.451Z,17.9
2017-04-13T11:54:55.324Z,18
2017-04-13T11:55:57.698Z,18.1
2017-04-13T11:56:59.604Z,18.2
2017-04-13T11:58:01.470Z,18.3
2017-04-13T11:59:35.441Z,18.4
2017-04-13T12:00:37.276Z,18.4
2017-04-13T12:01:39.102Z,18.5
2017-04-13T12:02:40.920Z,18.6
2017-04-13T12:03:42.753Z,18.7
2017-04-13T12:04:44.916Z,18.7
2017-04-13T12:05:46.739Z,18.7
2017-04-13T12:06:48.561Z,18.6
2017-04-13T12:07:50.386Z,18.5
2017-04-13T12:08:52.205Z,18.5
2017-04-13T12:09:54.021Z,18.5
2017-04-13T12:10:55.839Z,18.5
2017-04-13T12:11:57.666Z,18.6
2017-04-13T12:12:59.485Z,18.6
2017-04-13T12:14:01.296Z,18.5
2017-04-13T12:15:03.122Z,18.5
2017-04-13T12:16:04.948Z,18.4
2017-04-13T12:17:06.813Z,18.4
2017-04-13T12:18:08.632Z,18.2
2017-04-13T12:19:10.452Z,18.1
2017-04-13T12:20:12.275Z,18
2017-04-13T12:21:14.107Z,17.9
2017-04-13T12:22:15.956Z,17.7
2017-04-13T12:23:18.110Z,17.5
2017-04-13T12:24:19.942Z,17.4
2017-04-13T12:25:21.766Z,17.2
2017-04-13T12:26:23.584Z,17
2017-04-13T12:27:25.408Z,16.8
2017-04-13T12:28:27.222Z,16.5
2017-04-13T12:29:29.051Z,16.3
2017-04-13T12:30:30.855Z,16
2017-04-13T12:31:32.699Z,15.7
2017-04-13T12:32:34.619Z,15.5
2017-04-13T12:33:36.770Z,15.3
2017-04-13T12:34:38.622Z,15.1
2017-04-13T12:35:40.538Z,14.9
2017-04-13T12:36:42.350Z,14.8
2017-04-13T12:37:44.725Z,14.6
2017-04-13T12:38:46.575Z,14.6
2017-04-13T12:39:48.393Z,14.6
2017-04-13T12:40:50.204Z,14.7
2017-04-13T12:41:52.027Z,14.8
2017-04-13T12:42:54.171Z,15
2017-04-13T12:43:55.992Z,15.1
2017-04-13T12:44:58.252Z,15.3
2017-04-13T12:46:00.129Z,15.3
2017-04-13T12:47:01.948Z,15.4
2017-04-13T12:48:03.763Z,15.4
2017-04-13T12:49:05.583Z,15.4
2017-04-13T12:50:07.412Z,15.4
2017-04-13T12:51:09.479Z,15.4
2017-04-13T12:52:11.296Z,15.4
2017-04-13T12:53:13.108Z,15.4
2017-04-13T12:54:14.936Z,15.5
2017-04-13T12:55:16.743Z,15.6
2017-04-13T12:56:18.572Z,15.7
2017-04-13T12:57:20.621Z,15.8
2017-04-13T12:58:22.435Z,16
2017-04-13T12:59:24.706Z,16.2
2017-04-13T13:00:40.685Z,16.3
2017-04-13T13:01:52.895Z,16.3
2017-04-13T13:02:55.213Z,16.4
2017-04-13T13:04:00.081Z,16.6
2017-04-13T13:05:53.190Z,16.7
2017-04-13T13:11:17.974Z,17
2017-04-13T13:12:19.822Z,17.2
2017-04-13T13:13:21.636Z,17.4
2017-04-13T13:14:23.461Z,17.5
2017-04-13T13:15:25.631Z,17.6
2017-04-13T13:16:27.460Z,17.6
2017-04-13T13:17:29.692Z,17.6
2017-04-13T13:18:31.536Z,17.6
2017-04-13T13:19:33.355Z,17.6
2017-04-13T13:20:35.175Z,17.5
2017-04-13T13:21:36.989Z,17.5
2017-04-13T13:22:39.156Z,17.5
2017-04-13T13:23:40.973Z,17.6
2017-04-13T13:24:42.799Z,17.7
2017-04-13T13:25:44.617Z,17.8
2017-04-13T13:26:46.444Z,17.9
2017-04-13T13:27:48.262Z,18
2017-04-13T13:28:50.093Z,18
2017-04-13T13:29:52.094Z,18
2017-04-13T13:30:53.909Z,18
2017-04-13T13:31:55.729Z,17.9
2017-04-13T13:32:57.554Z,17.8
2017-04-13T13:33:59.384Z,17.6
2017-04-13T13:35:01.202Z,17.5
2017-04-13T13:36:03.354Z,17.4
2017-04-13T13:37:05.180Z,17.3
2017-04-13T13:38:07.007Z,17.2
2017-04-13T13:39:08.841Z,17
2017-04-13T13:40:10.659Z,16.8
2017-04-13T13:41:12.478Z,16.5
2017-04-13T13:42:14.301Z,16.4
2017-04-13T13:43:16.129Z,16.3
2017-04-13T13:44:18.001Z,16.1
2017-04-13T13:45:19.826Z,16
2017-04-13T13:46:21.640Z,15.9
2017-04-13T13:47:23.479Z,15.7
2017-04-13T13:48:25.301Z,15.6
2017-04-13T13:49:27.123Z,15.5
2017-04-13T13:50:29.333Z,15.5
2017-04-13T13:51:31.841Z,15.3
2017-04-13T13:52:33.665Z,15.2
2017-04-13T13:53:35.810Z,15.1
2017-04-13T13:54:37.981Z,15
2017-04-13T13:55:39.811Z,14.9
2017-04-13T13:56:41.626Z,14.9
2017-04-13T13:57:43.796Z,14.8
2017-04-13T13:58:45.625Z,14.8
2017-04-13T13:59:47.437Z,14.8
2017-04-13T14:00:49.256Z,14.7
2017-04-13T14:01:51.075Z,14.7
2017-04-13T14:02:52.896Z,14.7
2017-04-13T14:03:54.709Z,14.7
2017-04-13T14:04:56.531Z,14.6
2017-04-13T14:05:58.338Z,14.5
2017-04-13T14:07:00.504Z,14.6